createdAt,value
2023-03-22T00:00:47.626Z,21.64
2023-03-22T00:01:47.611Z,21.60
2023-03-22T00:02:48.672Z,21.64
2023-03-22T00:03:48.719Z,21.61
2023-03-22T00:04:47.605Z,21.65
2023-03-22T00:05:48.588Z,21.61
2023-03-22T00:06:48.569Z,21.63
2023-03-22T00:07:48.560Z,21.64
2023-03-22T00:08:47.554Z,21.61
2023-03-22T00:09:48.544Z,21.63
2023-03-22T00:10:48.561Z,21.64
2023-03-22T00:11:48.535Z,21.64
2023-03-22T00:12:48.530Z,21.61
2023-03-22T00:13:47.527Z,21.61
2023-03-22T00:14:48.508Z,21.63
2023-03-22T00:15:48.536Z,21.61
2023-03-22T00:16:47.506Z,21.61
2023-03-22T00:17:48.495Z,21.60
2023-03-22T00:18:48.479Z,21.60
2023-03-22T00:19:48.509Z,21.60
2023-03-22T00:20:48.472Z,21.60
2023-03-22T00:21:48.458Z,21.61
2023-03-22T00:22:48.471Z,21.58
2023-03-22T00:23:48.453Z,21.58
2023-03-22T00:24:48.450Z,21.61
2023-03-22T00:25:47.432Z,21.57
2023-03-22T00:26:47.460Z,21.57
2023-03-22T00:27:48.416Z,21.57
2023-03-22T00:28:48.401Z,21.57
2023-03-22T00:29:48.411Z,21.58
2023-03-22T00:30:48.393Z,21.61
2023-03-22T00:31:48.418Z,21.57
2023-03-22T00:32:48.377Z,21.57
2023-03-22T00:33:48.365Z,21.60
2023-03-22T00:34:48.359Z,21.54
2023-03-22T00:35:48.424Z,21.58
2023-03-22T00:36:48.350Z,21.61
2023-03-22T00:37:48.356Z,21.58
2023-03-22T00:38:48.340Z,21.58
2023-03-22T00:39:48.315Z,21.58
2023-03-22T00:40:47.329Z,21.58
2023-03-22T00:41:48.311Z,21.60
2023-03-22T00:42:47.306Z,21.57
2023-03-22T00:43:48.304Z,21.56
2023-03-22T00:44:48.288Z,21.56
2023-03-22T00:45:48.341Z,21.54
2023-03-22T00:46:48.276Z,21.58
2023-03-22T00:47:47.312Z,21.54
2023-03-22T00:48:48.260Z,21.54
2023-03-22T00:49:48.249Z,21.54
2023-03-22T00:50:48.266Z,21.52
2023-03-22T00:51:48.296Z,21.56
2023-03-22T00:52:48.287Z,21.54
2023-03-22T00:53:48.285Z,21.52
2023-03-22T00:54:48.307Z,21.53
2023-03-22T00:55:48.311Z,21.53
2023-03-22T00:56:48.326Z,21.53
2023-03-22T00:57:48.340Z,21.56
2023-03-22T00:58:48.351Z,21.53
2023-03-22T00:59:48.373Z,21.53
2023-03-22T01:00:48.430Z,21.54
2023-03-22T01:01:47.377Z,21.54
2023-03-22T01:02:48.398Z,21.54
2023-03-22T01:03:48.465Z,21.56
2023-03-22T01:04:47.425Z,21.53
2023-03-22T01:05:48.445Z,21.52
2023-03-22T01:06:48.452Z,21.50
2023-03-22T01:07:48.507Z,21.52
2023-03-22T01:08:48.473Z,21.52
2023-03-22T01:09:47.492Z,21.52
2023-03-22T01:10:48.506Z,21.49
2023-03-22T01:11:48.542Z,21.49
2023-03-22T01:12:48.565Z,21.46
2023-03-22T01:13:48.560Z,21.50
2023-03-22T01:14:48.570Z,21.47
2023-03-22T01:15:48.586Z,21.46
2023-03-22T01:16:48.633Z,21.47
2023-03-22T01:17:48.597Z,21.47
2023-03-22T01:18:48.599Z,21.49
2023-03-22T01:19:47.619Z,21.49
2023-03-22T01:20:47.637Z,21.47
2023-03-22T01:21:48.660Z,21.47
2023-03-22T01:22:48.668Z,21.49
2023-03-22T01:23:48.712Z,21.49
2023-03-22T01:24:47.703Z,21.50
2023-03-22T01:25:48.718Z,21.44
2023-03-22T01:26:48.728Z,21.49
2023-03-22T01:27:47.760Z,21.47
2023-03-22T01:28:47.786Z,21.49
2023-03-22T01:29:48.809Z,21.46
2023-03-22T01:30:48.857Z,21.50
2023-03-22T01:31:48.850Z,21.47
2023-03-22T01:32:48.873Z,21.49
2023-03-22T01:33:47.893Z,21.47
2023-03-22T01:34:48.926Z,21.47
2023-03-22T01:35:48.989Z,21.46
2023-03-22T01:36:48.980Z,21.46
2023-03-22T01:37:49.029Z,21.44
2023-03-22T01:38:49.040Z,21.47
2023-03-22T01:39:48.090Z,21.47
2023-03-22T01:40:49.072Z,21.47
2023-03-22T01:41:49.101Z,21.44
2023-03-22T01:42:49.123Z,21.43
2023-03-22T01:43:49.142Z,21.43
2023-03-22T01:44:48.176Z,21.43
2023-03-22T01:45:49.222Z,21.42
2023-03-22T01:46:49.202Z,21.42
2023-03-22T01:47:48.280Z,21.43
2023-03-22T01:48:49.324Z,21.44
2023-03-22T01:49:49.285Z,21.42
2023-03-22T01:50:49.301Z,21.42
2023-03-22T01:51:49.322Z,21.40
2023-03-22T01:52:49.348Z,21.40
2023-03-22T01:53:49.362Z,21.40
2023-03-22T01:54:49.371Z,21.40
2023-03-22T01:55:49.423Z,21.42
2023-03-22T01:56:49.411Z,21.37
2023-03-22T01:57:48.423Z,21.42
2023-03-22T01:58:49.459Z,21.43
2023-03-22T01:59:49.500Z,21.40
2023-03-22T02:00:49.503Z,21.39
2023-03-22T02:01:49.596Z,21.43
2023-03-22T02:02:48.623Z,21.40
2023-03-22T02:03:49.564Z,21.40
2023-03-22T02:04:49.579Z,21.42
2023-03-22T02:05:49.607Z,21.40
2023-03-22T02:06:49.631Z,21.36
2023-03-22T02:07:49.659Z,21.40
2023-03-22T02:08:49.677Z,21.39
2023-03-22T02:09:49.710Z,21.39
2023-03-22T02:10:49.747Z,21.42
2023-03-22T02:11:49.797Z,21.43
2023-03-22T02:12:50.833Z,21.39
2023-03-22T02:13:49.853Z,21.37
2023-03-22T02:14:49.843Z,21.37
2023-03-22T02:15:49.993Z,21.37
2023-03-22T02:16:48.902Z,21.37
2023-03-22T02:17:49.921Z,21.36
2023-03-22T02:18:49.946Z,21.36
2023-03-22T02:19:49.963Z,21.37
2023-03-22T02:20:50.003Z,21.36
2023-03-22T02:21:50.042Z,21.37
2023-03-22T02:22:50.074Z,21.39
2023-03-22T02:23:50.083Z,21.36
2023-03-22T02:24:50.110Z,21.39
2023-03-22T02:25:49.125Z,21.35
2023-03-22T02:26:50.152Z,21.35
2023-03-22T02:27:50.209Z,21.35
2023-03-22T02:28:50.226Z,21.35
2023-03-22T02:29:50.222Z,21.36
2023-03-22T02:30:50.298Z,21.35
2023-03-22T02:31:50.273Z,21.36
2023-03-22T02:32:50.305Z,21.33
2023-03-22T02:33:49.341Z,21.36
2023-03-22T02:34:50.368Z,21.37
2023-03-22T02:35:50.490Z,21.35
2023-03-22T02:36:50.413Z,21.33
2023-03-22T02:37:50.434Z,21.35
2023-03-22T02:38:50.469Z,21.35
2023-03-22T02:39:50.494Z,21.36
2023-03-22T02:40:50.539Z,21.35
2023-03-22T02:41:50.564Z,21.32
2023-03-22T02:42:50.689Z,21.33
2023-03-22T02:43:49.644Z,21.32
2023-03-22T02:44:50.652Z,21.33
2023-03-22T02:45:50.661Z,21.35
2023-03-22T02:46:50.742Z,21.35
2023-03-22T02:47:50.780Z,21.33
2023-03-22T02:48:50.778Z,21.36
2023-03-22T02:49:49.794Z,21.32
2023-03-22T02:50:50.818Z,21.32
2023-03-22T02:51:50.854Z,21.33
2023-03-22T02:52:50.884Z,21.32
2023-03-22T02:53:50.914Z,21.32
2023-03-22T02:54:50.946Z,21.33
2023-03-22T02:55:49.977Z,21.30
2023-03-22T02:56:51.010Z,21.33
2023-03-22T02:57:51.041Z,21.30
2023-03-22T02:58:51.090Z,21.33
2023-03-22T02:59:50.150Z,21.35
2023-03-22T03:00:51.241Z,21.32
2023-03-22T03:01:51.190Z,21.32
2023-03-22T03:02:50.219Z,21.33
2023-03-22T03:03:51.252Z,21.32
2023-03-22T03:04:51.292Z,21.30
2023-03-22T03:05:51.310Z,21.32
2023-03-22T03:06:51.342Z,21.33
2023-03-22T03:07:51.370Z,21.32
2023-03-22T03:08:51.412Z,21.33
2023-03-22T03:09:51.451Z,21.35
2023-03-22T03:10:51.502Z,21.33
2023-03-22T03:11:51.532Z,21.32
2023-03-22T03:12:51.573Z,21.30
2023-03-22T03:13:51.589Z,21.33
2023-03-22T03:14:51.618Z,21.32
2023-03-22T03:15:50.682Z,21.33
2023-03-22T03:16:51.678Z,21.33
2023-03-22T03:17:51.703Z,21.32
2023-03-22T03:18:51.728Z,21.32
2023-03-22T03:19:51.796Z,21.30
2023-03-22T03:20:51.797Z,21.32
2023-03-22T03:21:51.844Z,21.30
2023-03-22T03:22:51.866Z,21.30
2023-03-22T03:23:51.901Z,21.30
2023-03-22T03:24:51.926Z,21.33
2023-03-22T03:25:51.961Z,21.30
2023-03-22T03:26:52.004Z,21.30
2023-03-22T03:27:52.057Z,21.32
2023-03-22T03:28:52.103Z,21.30
2023-03-22T03:29:51.124Z,21.32
2023-03-22T03:30:51.152Z,21.33
2023-03-22T03:31:52.376Z,21.30
2023-03-22T03:32:52.236Z,21.30
2023-03-22T03:33:52.292Z,21.32
2023-03-22T03:34:52.318Z,21.33
2023-03-22T03:35:52.449Z,21.33
2023-03-22T03:36:52.401Z,21.33
2023-03-22T03:37:52.445Z,21.30
2023-03-22T03:38:52.497Z,21.32
2023-03-22T03:39:52.527Z,21.32
2023-03-22T03:40:52.567Z,21.32
2023-03-22T03:41:52.583Z,21.29
2023-03-22T03:42:51.647Z,21.30
2023-03-22T03:43:52.681Z,21.32
2023-03-22T03:44:52.699Z,21.30
2023-03-22T03:45:52.799Z,21.30
2023-03-22T03:46:52.770Z,21.32
2023-03-22T03:47:52.884Z,21.32
2023-03-22T03:48:52.887Z,21.30
2023-03-22T03:49:52.874Z,21.32
2023-03-22T03:50:51.910Z,21.30
2023-03-22T03:51:52.962Z,21.28
2023-03-22T03:52:52.983Z,21.30
2023-03-22T03:53:53.022Z,21.32
2023-03-22T03:54:53.044Z,21.29
2023-03-22T03:55:53.120Z,21.28
2023-03-22T03:56:52.126Z,21.32
2023-03-22T03:57:53.169Z,21.29
2023-03-22T03:58:53.226Z,21.28
2023-03-22T03:59:53.237Z,21.29
2023-03-22T04:00:53.267Z,21.26
2023-03-22T04:01:53.374Z,21.25
2023-03-22T04:02:53.355Z,21.21
2023-03-22T04:03:53.428Z,21.22
2023-03-22T04:04:53.393Z,21.22
2023-03-22T04:05:53.432Z,21.25
2023-03-22T04:06:53.448Z,21.28
2023-03-22T04:07:53.472Z,21.29
2023-03-22T04:08:53.627Z,21.29
2023-03-22T04:09:53.523Z,21.33
2023-03-22T04:10:53.543Z,21.36
2023-03-22T04:11:53.539Z,21.32
2023-03-22T04:12:53.553Z,21.35
2023-03-22T04:13:52.596Z,21.37
2023-03-22T04:14:53.587Z,21.39
2023-03-22T04:15:53.589Z,21.42
2023-03-22T04:16:53.685Z,21.39
2023-03-22T04:17:52.637Z,21.44
2023-03-22T04:18:53.625Z,21.49
2023-03-22T04:19:52.651Z,21.50
2023-03-22T04:20:52.631Z,21.49
2023-03-22T04:21:52.610Z,21.53
2023-03-22T04:22:53.659Z,21.54
2023-03-22T04:23:53.600Z,21.57
2023-03-22T04:24:52.604Z,21.60
2023-03-22T04:25:53.626Z,21.63
2023-03-22T04:26:53.592Z,21.65
2023-03-22T04:27:53.625Z,21.65
2023-03-22T04:28:53.674Z,21.68
2023-03-22T04:29:53.675Z,21.70
2023-03-22T04:30:53.808Z,21.73
2023-03-22T04:31:53.811Z,21.73
2023-03-22T04:32:53.888Z,21.74
2023-03-22T04:33:53.940Z,21.77
2023-03-22T04:34:54.063Z,21.78
2023-03-22T04:35:53.154Z,21.81
2023-03-22T04:36:54.129Z,21.84
2023-03-22T04:37:54.176Z,21.85
2023-03-22T04:38:54.226Z,21.84
2023-03-22T04:39:54.320Z,21.89
2023-03-22T04:40:54.342Z,21.89
2023-03-22T04:41:53.389Z,21.89
2023-03-22T04:42:54.434Z,21.91
2023-03-22T04:43:53.490Z,21.95
2023-03-22T04:44:53.537Z,21.96
2023-03-22T04:45:54.648Z,21.96
2023-03-22T04:46:54.626Z,21.98
2023-03-22T04:47:54.694Z,21.98
2023-03-22T04:48:54.699Z,21.98
2023-03-22T04:49:54.756Z,22.02
2023-03-22T04:50:54.800Z,22.04
2023-03-22T04:51:54.864Z,22.05
2023-03-22T04:52:53.872Z,22.05
2023-03-22T04:53:54.895Z,22.05
2023-03-22T04:54:53.951Z,22.04
2023-03-22T04:55:54.990Z,22.06
2023-03-22T04:56:55.030Z,22.05
2023-03-22T04:57:55.068Z,22.08
2023-03-22T04:58:55.106Z,22.05
2023-03-22T04:59:54.135Z,22.05
2023-03-22T05:00:54.173Z,22.06
2023-03-22T05:01:55.279Z,22.06
2023-03-22T05:02:55.325Z,22.08
2023-03-22T05:03:55.288Z,22.06
2023-03-22T05:04:55.336Z,22.06
2023-03-22T05:05:55.356Z,22.04
2023-03-22T05:06:55.403Z,22.05
2023-03-22T05:07:55.546Z,22.06
2023-03-22T05:08:55.486Z,22.02
2023-03-22T05:09:55.515Z,22.08
2023-03-22T05:10:54.573Z,22.02
2023-03-22T05:11:55.617Z,22.04
2023-03-22T05:12:54.719Z,22.02
2023-03-22T05:13:55.694Z,22.04
2023-03-22T05:14:54.725Z,22.05
2023-03-22T05:15:55.795Z,22.04
2023-03-22T05:16:54.834Z,22.04
2023-03-22T05:17:54.870Z,22.05
2023-03-22T05:18:55.956Z,22.06
2023-03-22T05:19:55.994Z,22.04
2023-03-22T05:20:56.018Z,22.06
2023-03-22T05:21:56.075Z,22.08
2023-03-22T05:22:56.105Z,22.05
2023-03-22T05:23:56.198Z,22.05
2023-03-22T05:24:55.196Z,22.06
2023-03-22T05:25:56.255Z,22.08
2023-03-22T05:26:56.304Z,22.05
2023-03-22T05:27:56.358Z,22.06
2023-03-22T05:28:56.405Z,22.08
2023-03-22T05:29:56.469Z,22.09
2023-03-22T05:30:57.290Z,22.09
2023-03-22T05:31:56.558Z,22.11
2023-03-22T05:32:56.591Z,22.08
2023-03-22T05:33:56.642Z,22.08
2023-03-22T05:34:56.692Z,22.11
2023-03-22T05:35:55.788Z,22.12
2023-03-22T05:36:56.777Z,22.13
2023-03-22T05:37:56.847Z,22.12
2023-03-22T05:38:56.866Z,22.12
2023-03-22T05:39:56.940Z,22.12
2023-03-22T05:40:56.937Z,22.12
2023-03-22T05:41:56.995Z,22.13
2023-03-22T05:42:57.034Z,22.12
2023-03-22T05:43:57.060Z,22.15
2023-03-22T05:44:57.139Z,22.15
2023-03-22T05:45:57.159Z,22.15
2023-03-22T05:46:56.280Z,22.15
2023-03-22T05:47:57.303Z,22.15
2023-03-22T05:48:56.292Z,22.16
2023-03-22T05:49:57.357Z,22.16
2023-03-22T05:50:57.379Z,22.16
2023-03-22T05:51:57.423Z,22.15
2023-03-22T05:52:57.473Z,22.17
2023-03-22T05:53:57.514Z,22.16
2023-03-22T05:54:57.567Z,22.17
2023-03-22T05:55:56.618Z,22.19
2023-03-22T05:56:57.630Z,22.16
2023-03-22T05:57:57.661Z,22.17
2023-03-22T05:58:57.703Z,22.19
2023-03-22T05:59:57.776Z,22.19
2023-03-22T06:00:57.780Z,22.19
2023-03-22T06:01:57.898Z,22.20
2023-03-22T06:02:57.916Z,22.20
2023-03-22T06:03:56.911Z,22.22
2023-03-22T06:04:57.991Z,22.19
2023-03-22T06:05:58.007Z,22.22
2023-03-22T06:06:58.010Z,22.22
2023-03-22T06:07:58.057Z,22.22
2023-03-22T06:09:10.569Z,22.23
2023-03-22T06:09:58.125Z,22.24
2023-03-22T06:10:57.080Z,22.23
2023-03-22T06:11:58.097Z,22.26
2023-03-22T06:12:58.085Z,22.26
2023-03-22T06:13:57.051Z,22.24
2023-03-22T06:14:58.047Z,22.26
2023-03-22T06:15:58.056Z,22.26
2023-03-22T06:16:58.102Z,22.23
2023-03-22T06:17:58.026Z,22.24
2023-03-22T06:18:58.035Z,22.26
2023-03-22T06:19:58.007Z,22.26
2023-03-22T06:20:58.007Z,22.24
2023-03-22T06:21:58.010Z,22.26
2023-03-22T06:22:58.002Z,22.26
2023-03-22T06:23:58.008Z,22.26
2023-03-22T06:24:57.992Z,22.26
2023-03-22T06:25:57.981Z,22.29
2023-03-22T06:26:58.014Z,22.33
2023-03-22T06:27:58.037Z,22.30
2023-03-22T06:28:57.949Z,22.35
2023-03-22T06:29:57.942Z,22.36
2023-03-22T06:30:58.058Z,22.33
2023-03-22T06:31:57.977Z,22.29
2023-03-22T06:32:57.967Z,22.35
2023-03-22T06:33:57.918Z,22.36
2023-03-22T06:34:56.914Z,22.35
2023-03-22T06:35:57.955Z,22.35
2023-03-22T06:36:57.908Z,22.39
2023-03-22T06:37:57.897Z,22.37
2023-03-22T06:38:57.901Z,22.40
2023-03-22T06:39:57.882Z,22.36
2023-03-22T06:40:57.882Z,22.39
2023-03-22T06:41:57.899Z,22.43
2023-03-22T06:42:57.888Z,22.44
2023-03-22T06:43:57.871Z,22.43
2023-03-22T06:44:56.865Z,22.47
2023-03-22T06:45:57.951Z,22.50
2023-03-22T06:46:57.913Z,22.54
2023-03-22T06:47:57.972Z,22.53
2023-03-22T06:48:57.926Z,22.67
2023-03-22T06:49:57.930Z,22.72
2023-03-22T06:50:57.977Z,22.97
2023-03-22T06:51:57.974Z,23.10
2023-03-22T06:52:57.996Z,23.23
2023-03-22T06:53:57.073Z,23.39
2023-03-22T06:54:58.161Z,23.49
2023-03-22T06:55:58.161Z,23.50
2023-03-22T06:56:57.216Z,23.36
2023-03-22T06:57:58.216Z,23.08
2023-03-22T06:58:58.229Z,23.01
2023-03-22T06:59:58.382Z,22.67
2023-03-22T07:00:58.781Z,22.92
2023-03-22T07:01:57.397Z,22.91
2023-03-22T07:02:57.345Z,22.84
2023-03-22T07:03:58.389Z,22.85
2023-03-22T07:04:58.454Z,22.94
2023-03-22T07:05:58.395Z,23.02
2023-03-22T07:06:58.451Z,23.08
2023-03-22T07:07:58.426Z,23.12
2023-03-22T07:08:58.406Z,23.08
2023-03-22T07:09:58.466Z,23.16
2023-03-22T07:10:58.471Z,23.23
2023-03-22T07:11:58.538Z,23.34
2023-03-22T07:12:58.572Z,23.40
2023-03-22T07:13:58.653Z,23.46
2023-03-22T07:14:57.689Z,23.51
2023-03-22T07:15:58.843Z,23.54
2023-03-22T07:16:58.772Z,23.58
2023-03-22T07:17:58.843Z,23.50
2023-03-22T07:18:58.894Z,23.61
2023-03-22T07:19:58.892Z,23.64
2023-03-22T07:20:58.914Z,23.67
2023-03-22T07:21:58.929Z,23.67
2023-03-22T07:22:57.933Z,23.65
2023-03-22T07:23:59.133Z,23.68
2023-03-22T07:25:01.604Z,23.72
2023-03-22T07:25:57.971Z,23.75
2023-03-22T07:26:58.946Z,23.71
2023-03-22T07:27:57.994Z,23.81
2023-03-22T07:28:57.944Z,23.74
2023-03-22T07:29:57.936Z,23.78
2023-03-22T07:30:57.943Z,23.79
2023-03-22T07:31:59.032Z,23.79
2023-03-22T07:32:58.917Z,23.85
2023-03-22T07:33:59.004Z,23.86
2023-03-22T07:34:58.887Z,23.89
2023-03-22T07:35:58.935Z,23.93
2023-03-22T07:36:58.884Z,23.95
2023-03-22T07:37:58.905Z,23.98
2023-03-22T07:38:57.887Z,23.98
2023-03-22T07:39:58.866Z,23.98
2023-03-22T07:40:58.862Z,23.95
2023-03-22T07:41:58.866Z,24.01
2023-03-22T07:42:58.845Z,23.99
2023-03-22T07:44:11.415Z,23.95
2023-03-22T07:44:58.904Z,24.02
2023-03-22T07:45:58.978Z,24.06
2023-03-22T07:46:58.858Z,24.08
2023-03-22T07:47:58.950Z,24.06
2023-03-22T07:48:58.798Z,24.12
2023-03-22T07:49:58.789Z,24.13
2023-03-22T07:50:58.801Z,24.15
2023-03-22T07:51:57.872Z,24.13
2023-03-22T07:52:58.803Z,24.08
2023-03-22T07:53:58.952Z,24.24
2023-03-22T07:54:58.794Z,24.43
2023-03-22T07:55:59.151Z,24.46
2023-03-22T07:56:57.744Z,24.31
2023-03-22T07:57:58.756Z,24.27
2023-03-22T07:58:58.901Z,24.38
2023-03-22T07:59:58.776Z,24.47
2023-03-22T08:00:57.745Z,24.71
2023-03-22T08:01:58.804Z,24.64
2023-03-22T08:02:58.788Z,24.72
2023-03-22T08:03:58.790Z,24.71
2023-03-22T08:04:58.692Z,24.58
2023-03-22T08:05:58.698Z,24.88
2023-03-22T08:06:57.693Z,24.77
2023-03-22T08:07:58.674Z,24.46
2023-03-22T08:08:57.691Z,24.47
2023-03-22T08:09:58.387Z,24.47
2023-03-22T08:10:58.658Z,24.44
2023-03-22T08:11:58.645Z,24.50
2023-03-22T08:12:58.637Z,24.40
2023-03-22T08:13:58.658Z,24.44
2023-03-22T08:14:58.624Z,24.50
2023-03-22T08:15:57.692Z,24.46
2023-03-22T08:16:58.605Z,24.50
2023-03-22T08:17:58.585Z,24.54
2023-03-22T08:18:58.576Z,24.58
2023-03-22T08:19:59.627Z,24.64
2023-03-22T08:20:58.608Z,24.60
2023-03-22T08:21:58.611Z,24.61
2023-03-22T08:22:58.653Z,24.58
2023-03-22T08:23:58.715Z,24.68
2023-03-22T08:24:58.761Z,24.65
2023-03-22T08:25:57.805Z,24.70
2023-03-22T08:26:57.868Z,24.70
2023-03-22T08:27:58.945Z,24.68
2023-03-22T08:28:58.971Z,24.74
2023-03-22T08:29:59.045Z,24.68
2023-03-22T08:30:59.098Z,24.70
2023-03-22T08:31:59.190Z,24.74
2023-03-22T08:32:59.183Z,24.65
2023-03-22T08:33:59.284Z,24.71
2023-03-22T08:34:59.309Z,24.78
2023-03-22T08:35:58.390Z,24.75
2023-03-22T08:36:59.379Z,24.72
2023-03-22T08:37:58.422Z,24.75
2023-03-22T08:38:59.477Z,24.81
2023-03-22T08:39:59.734Z,24.68
2023-03-22T08:40:59.573Z,24.74
2023-03-22T08:41:59.631Z,24.82
2023-03-22T08:42:59.671Z,24.82
2023-03-22T08:43:59.690Z,24.89
2023-03-22T08:44:58.707Z,24.93
2023-03-22T08:45:59.833Z,24.86
2023-03-22T08:47:02.119Z,24.83
2023-03-22T08:47:59.881Z,24.89
2023-03-22T08:48:59.756Z,24.79
2023-03-22T08:49:59.769Z,24.82
2023-03-22T08:50:59.744Z,24.92
2023-03-22T08:52:00.730Z,24.93
2023-03-22T08:52:59.760Z,24.95
2023-03-22T08:53:59.753Z,24.92
2023-03-22T08:54:59.727Z,24.93
2023-03-22T08:55:58.728Z,24.86
2023-03-22T08:56:59.770Z,24.85
2023-03-22T08:57:59.726Z,24.77
2023-03-22T08:58:59.705Z,24.70
2023-03-22T08:59:59.697Z,24.60
2023-03-22T09:00:59.817Z,24.60
2023-03-22T09:01:59.889Z,24.54
2023-03-22T09:02:59.690Z,24.51
2023-03-22T09:03:58.743Z,24.44
2023-03-22T09:04:59.647Z,24.40
2023-03-22T09:05:58.671Z,24.46
2023-03-22T09:06:59.647Z,24.46
2023-03-22T09:08:05.911Z,24.34
2023-03-22T09:08:59.642Z,24.33
2023-03-22T09:09:59.635Z,24.31
2023-03-22T09:10:58.618Z,24.33
2023-03-22T09:11:59.680Z,24.30
2023-03-22T09:12:58.612Z,24.29
2023-03-22T09:13:59.588Z,24.29
2023-03-22T09:14:58.588Z,24.31
2023-03-22T09:15:59.729Z,24.26
2023-03-22T09:16:58.601Z,24.21
2023-03-22T09:17:59.578Z,24.21
2023-03-22T09:18:58.551Z,24.26
2023-03-22T09:20:11.645Z,24.23
2023-03-22T09:20:59.548Z,24.21
2023-03-22T09:21:59.535Z,24.23
2023-03-22T09:22:59.534Z,24.26
2023-03-22T09:23:59.689Z,24.17
2023-03-22T09:24:59.535Z,24.16
2023-03-22T09:25:59.550Z,24.15
2023-03-22T09:26:59.497Z,24.15
2023-03-22T09:27:58.487Z,24.16
2023-03-22T09:28:59.487Z,24.17
2023-03-22T09:29:59.483Z,24.19
2023-03-22T09:30:59.534Z,24.17
2023-03-22T09:31:59.518Z,24.15
2023-03-22T09:32:59.495Z,24.19
2023-03-22T09:33:59.448Z,24.13
2023-03-22T09:34:59.446Z,24.12
2023-03-22T09:35:59.493Z,24.13
2023-03-22T09:36:59.438Z,24.16
2023-03-22T09:37:58.438Z,24.10
2023-03-22T09:38:59.445Z,24.10
2023-03-22T09:39:59.441Z,24.10
2023-03-22T09:40:59.429Z,24.12
2023-03-22T09:41:59.694Z,24.12
2023-03-22T09:42:59.388Z,24.06
2023-03-22T09:43:59.387Z,24.12
2023-03-22T09:44:59.384Z,24.10
2023-03-22T09:45:59.448Z,24.09
2023-03-22T09:46:59.692Z,24.12
2023-03-22T09:47:59.406Z,24.15
2023-03-22T09:48:59.337Z,23.93
2023-03-22T09:49:59.333Z,24.05
2023-03-22T09:50:59.326Z,24.06
2023-03-22T09:51:59.380Z,24.10
2023-03-22T09:52:59.331Z,24.15
2023-03-22T09:53:59.322Z,24.08
2023-03-22T09:54:58.383Z,24.12
2023-03-22T09:55:59.439Z,24.16
2023-03-22T09:56:59.704Z,24.05
2023-03-22T09:57:59.522Z,24.09
2023-03-22T09:58:59.546Z,24.10
2023-03-22T09:59:59.579Z,24.10
2023-03-22T10:00:59.794Z,24.16
2023-03-22T10:01:59.998Z,24.20
2023-03-22T10:02:59.725Z,24.23
2023-03-22T10:03:59.857Z,24.23
2023-03-22T10:04:59.821Z,24.26
2023-03-22T10:05:59.909Z,24.23
2023-03-22T10:07:00.414Z,24.26
2023-03-22T10:08:00.452Z,24.26
2023-03-22T10:09:00.294Z,24.27
2023-03-22T10:10:00.620Z,24.30
2023-03-22T10:11:00.649Z,24.29
2023-03-22T10:12:02.498Z,24.26
2023-03-22T10:13:00.223Z,24.10
2023-03-22T10:14:00.570Z,24.10
2023-03-22T10:15:00.167Z,24.15
2023-03-22T10:16:00.310Z,24.19
2023-03-22T10:17:00.212Z,24.21
2023-03-22T10:18:00.427Z,24.21
2023-03-22T10:19:01.087Z,24.24
2023-03-22T10:20:00.156Z,24.31
2023-03-22T10:21:00.168Z,24.30
2023-03-22T10:22:00.704Z,24.31
2023-03-22T10:23:00.253Z,24.31
2023-03-22T10:24:01.639Z,24.34
2023-03-22T10:25:00.307Z,24.31
2023-03-22T10:25:59.366Z,24.33
2023-03-22T10:27:00.695Z,24.33
2023-03-22T10:28:00.531Z,24.33
2023-03-22T10:29:02.752Z,24.31
2023-03-22T10:30:00.486Z,24.30
2023-03-22T10:31:00.528Z,24.26
2023-03-22T10:31:59.465Z,24.05
2023-03-22T10:33:01.171Z,23.86
2023-03-22T10:34:00.446Z,24.01
2023-03-22T10:35:00.446Z,24.06
2023-03-22T10:35:59.509Z,23.72
2023-03-22T10:37:00.472Z,23.84
2023-03-22T10:37:59.429Z,23.88
2023-03-22T10:38:59.423Z,23.93
2023-03-22T10:40:00.402Z,24.08
2023-03-22T10:41:00.388Z,24.13
2023-03-22T10:41:59.395Z,24.19
2023-03-22T10:43:00.378Z,24.29
2023-03-22T10:44:00.406Z,24.31
2023-03-22T10:44:59.378Z,24.47
2023-03-22T10:46:00.412Z,24.38
2023-03-22T10:47:01.430Z,24.51
2023-03-22T10:48:00.416Z,24.44
2023-03-22T10:49:00.392Z,24.58
2023-03-22T10:49:59.482Z,24.65
2023-03-22T10:50:59.526Z,24.70
2023-03-22T10:52:00.744Z,24.68
2023-03-22T10:53:00.624Z,24.62
2023-03-22T10:54:00.690Z,24.64
2023-03-22T10:55:03.753Z,24.72
2023-03-22T10:56:00.726Z,24.70
2023-03-22T10:57:00.736Z,24.65
2023-03-22T10:58:00.697Z,24.67
2023-03-22T10:59:00.710Z,24.54
2023-03-22T11:00:00.800Z,24.62
2023-03-22T11:01:00.806Z,24.62
2023-03-22T11:02:00.824Z,24.55
2023-03-22T11:03:00.762Z,24.44
2023-03-22T11:04:00.669Z,24.44
2023-03-22T11:04:59.647Z,24.40
2023-03-22T11:05:59.629Z,24.46
2023-03-22T11:07:00.632Z,24.46
2023-03-22T11:08:00.633Z,24.40
2023-03-22T11:08:59.619Z,24.44
2023-03-22T11:10:00.620Z,24.43
2023-03-22T11:11:00.726Z,24.47
2023-03-22T11:12:00.609Z,24.51
2023-03-22T11:12:59.586Z,24.51
2023-03-22T11:14:00.590Z,24.41
2023-03-22T11:15:00.647Z,24.46
2023-03-22T11:16:00.703Z,24.51
2023-03-22T11:17:00.769Z,24.43
2023-03-22T11:18:00.716Z,24.40
2023-03-22T11:19:00.752Z,24.47
2023-03-22T11:20:00.857Z,24.50
2023-03-22T11:21:00.825Z,24.55
2023-03-22T11:22:00.859Z,24.51
2023-03-22T11:23:00.882Z,24.58
2023-03-22T11:23:59.913Z,24.50
2023-03-22T11:25:00.955Z,24.53
2023-03-22T11:26:00.968Z,24.68
2023-03-22T11:27:01.015Z,24.65
2023-03-22T11:28:01.031Z,24.61
2023-03-22T11:29:00.066Z,24.55
2023-03-22T11:30:01.096Z,24.74
2023-03-22T11:31:01.073Z,24.86
2023-03-22T11:32:01.282Z,24.71
2023-03-22T11:34:01.116Z,24.78
2023-03-22T11:38:01.204Z,24.90
2023-03-22T11:44:00.314Z,24.90
2023-03-22T11:45:00.358Z,24.79
2023-03-22T11:46:01.442Z,24.71
2023-03-22T11:47:01.750Z,24.78
2023-03-22T11:49:01.687Z,24.93
2023-03-22T11:50:01.567Z,25.00
2023-03-22T12:06:01.041Z,25.44
2023-03-22T12:14:01.111Z,25.20
2023-03-22T12:27:01.271Z,25.45
2023-03-22T12:29:01.321Z,25.49
2023-03-22T12:32:02.371Z,25.54
2023-03-22T12:33:02.417Z,25.62
2023-03-22T12:35:16.495Z,25.64
2023-03-22T12:36:02.470Z,25.62
2023-03-22T12:37:02.386Z,25.49
2023-03-22T12:38:02.362Z,25.30
2023-03-22T12:40:02.372Z,25.33
2023-03-22T12:41:02.383Z,25.22
2023-03-22T12:42:02.352Z,25.14
2023-03-22T12:47:02.399Z,25.14
2023-03-22T12:48:02.398Z,25.12
2023-03-22T12:49:02.379Z,24.97
2023-03-22T12:50:02.292Z,25.19
2023-03-22T12:52:02.400Z,25.03
2023-03-22T12:54:02.265Z,24.97
2023-03-22T12:55:01.249Z,24.90
2023-03-22T12:56:02.247Z,24.96
2023-03-22T12:57:02.261Z,24.89
2023-03-22T12:58:02.274Z,24.72
2023-03-22T12:59:02.245Z,24.68
2023-03-22T13:00:02.209Z,24.70
2023-03-22T13:01:02.260Z,24.79
2023-03-22T13:02:02.210Z,24.77
2023-03-22T13:03:01.413Z,24.77
2023-03-22T13:04:02.350Z,24.82
2023-03-22T13:07:01.175Z,24.81
2023-03-22T13:09:01.163Z,24.92
2023-03-22T13:10:01.145Z,24.78
2023-03-22T13:12:02.154Z,24.62
2023-03-22T13:13:02.140Z,24.57
2023-03-22T13:14:01.134Z,24.48
2023-03-22T13:15:02.119Z,24.62
2023-03-22T13:16:02.272Z,24.46
2023-03-22T13:17:02.189Z,24.57
2023-03-22T13:18:02.198Z,24.38
2023-03-22T13:19:02.087Z,24.51
2023-03-22T13:22:02.114Z,24.31
2023-03-22T13:24:01.112Z,24.38
2023-03-22T13:25:01.097Z,24.37
2023-03-22T13:27:02.156Z,24.67
2023-03-22T13:28:02.138Z,24.57
2023-03-22T13:29:02.202Z,24.55
2023-03-22T13:30:02.194Z,24.47
2023-03-22T13:31:02.274Z,24.36
2023-03-22T13:32:02.368Z,24.33
2023-03-22T13:33:01.433Z,24.30
2023-03-22T13:34:02.412Z,24.31
2023-03-22T13:35:02.461Z,24.41
2023-03-22T13:36:02.939Z,24.53
2023-03-22T13:37:02.573Z,24.37
2023-03-22T13:38:01.588Z,24.26
2023-03-22T13:39:01.624Z,24.55
2023-03-22T13:40:01.652Z,24.60
2023-03-22T13:41:02.621Z,24.68
2023-03-22T13:42:02.658Z,24.67
2023-03-22T13:43:01.708Z,24.62
2023-03-22T13:44:03.105Z,24.72
2023-03-22T13:45:02.828Z,24.57
2023-03-22T13:46:02.917Z,24.70
2023-03-22T13:47:02.938Z,24.92
2023-03-22T13:48:02.057Z,24.93
2023-03-22T13:49:03.094Z,24.90
2023-03-22T13:50:04.171Z,24.88
2023-03-22T13:51:03.055Z,24.82
2023-03-22T13:52:03.083Z,24.96
2023-03-22T13:53:03.043Z,24.92
2023-03-22T13:54:03.052Z,24.95
2023-03-22T13:55:03.053Z,24.85
2023-03-22T13:56:03.028Z,24.93